Time;durP1;ratioP1;P1;durP2;ratioP2;P2;SDS_P1;SDS_P2;PMS_P1;PMS_P2;Temp;Humidity;BMP_temperature;BMP_pressure;BME280_temperature;BME280_humidity;BME280_pressure;Samples;Min_cycle;Max_cycle;Signal;HPM_P1;HPM_P2
2023/12/15 00:00:24;;;;;;;4.80;3.40;;;;;;;;;;5059756;28;20036;-69
2023/12/15 00:02:50;;;;;;;9.90;3.40;;;;;;;;;;5058105;28;20424;-69
2023/12/15 00:05:17;;;;;;;6.45;2.58;;;;;;;;;;5055139;28;20040;-69
2023/12/15 00:07:43;;;;;;;9.65;3.13;;;;;;;;;;5057333;28;20032;-69
2023/12/15 00:10:09;;;;;;;11.48;3.15;;;;;;;;;;5058396;28;20129;-70
2023/12/15 00:12:36;;;;;;;13.23;4.22;;;;;;;;;;5052724;28;20572;-70
2023/12/15 00:15:03;;;;;;;13.63;3.33;;;;;;;;;;5056835;28;20043;-70
2023/12/15 00:17:29;;;;;;;6.88;3.30;;;;;;;;;;5055973;28;20036;-70
2023/12/15 00:19:55;;;;;;;9.73;4.05;;;;;;;;;;5057994;28;20043;-69
2023/12/15 00:22:21;;;;;;;13.30;4.07;;;;;;;;;;5058343;28;20413;-69
2023/12/15 00:24:47;;;;;;;8.40;3.80;;;;;;;;;;5058788;28;20513;-69
2023/12/15 00:27:13;;;;;;;14.43;3.35;;;;;;;;;;5053665;28;20170;-69
2023/12/15 00:29:39;;;;;;;13.10;3.88;;;;;;;;;;5060329;28;20028;-70
2023/12/15 00:32:05;;;;;;;14.40;3.78;;;;;;;;;;5060019;28;20027;-69
2023/12/15 00:34:32;;;;;;;8.35;3.47;;;;;;;;;;5057229;28;20668;-70
2023/12/15 00:36:58;;;;;;;8.02;3.45;;;;;;;;;;5056345;28;20043;-69
2023/12/15 00:39:24;;;;;;;11.82;3.20;;;;;;;;;;5090068;28;20162;-69
2023/12/15 00:41:53;;;;;;;9.75;3.95;;;;;;;;;;5056701;28;20028;-69
2023/12/15 00:44:19;;;;;;;8.18;2.42;;;;;;;;;;5055763;28;20484;-69
2023/12/15 00:46:45;;;;;;;9.88;3.65;;;;;;;;;;5057065;28;20056;-70
2023/12/15 00:49:11;;;;;;;14.32;3.72;;;;;;;;;;5060702;28;20577;-69
2023/12/15 00:51:38;;;;;;;6.88;2.60;;;;;;;;;;5062327;28;20480;-70
2023/12/15 00:54:04;;;;;;;12.20;3.42;;;;;;;;;;5058436;28;20535;-70
2023/12/15 00:56:33;;;;;;;5.00;3.33;;;;;;;;;;5059151;28;20583;-69
2023/12/15 00:59:02;;;;;;;8.90;3.30;;;;;;;;;;5049783;28;20035;-70
2023/12/15 01:01:28;;;;;;;12.60;4.05;;;;;;;;;;5087308;28;20040;-69
2023/12/15 01:03:54;;;;;;;21.85;3.75;;;;;;;;;;5056389;28;20571;-69
2023/12/15 01:06:20;;;;;;;10.85;3.55;;;;;;;;;;5054598;28;20043;-70
2023/12/15 01:08:46;;;;;;;9.90;2.55;;;;;;;;;;5055408;28;20024;-70
2023/12/15 01:11:13;;;;;;;8.93;3.08;;;;;;;;;;5055375;28;20027;-70
2023/12/15 01:13:39;;;;;;;11.52;3.17;;;;;;;;;;5056677;28;20020;-70
2023/12/15 01:16:06;;;;;;;12.95;3.10;;;;;;;;;;5057060;28;20553;-69
2023/12/15 01:18:33;;;;;;;6.30;2.95;;;;;;;;;;5088512;28;20400;-69
2023/12/15 01:20:59;;;;;;;10.27;3.67;;;;;;;;;;5056209;28;20051;-69
2023/12/15 01:23:25;;;;;;;7.88;2.67;;;;;;;;;;5055084;28;20051;-69
2023/12/15 01:25:52;;;;;;;13.98;3.67;;;;;;;;;;5055309;28;21523;-69
2023/12/15 01:28:18;;;;;;;12.65;3.40;;;;;;;;;;5057165;28;20100;-69
2023/12/15 01:30:44;;;;;;;6.45;3.00;;;;;;;;;;5052679;28;20364;-69
2023/12/15 01:33:10;;;;;;;8.40;2.88;;;;;;;;;;5086877;28;20112;-69
2023/12/15 01:35:36;;;;;;;8.52;2.90;;;;;;;;;;5054128;28;20542;-69
2023/12/15 01:38:02;;;;;;;10.25;3.03;;;;;;;;;;5053985;28;20496;-69
2023/12/15 01:40:28;;;;;;;11.82;3.53;;;;;;;;;;5053648;28;20041;-69
2023/12/15 01:42:57;;;;;;;6.05;2.83;;;;;;;;;;5052645;28;20106;-69
2023/12/15 01:45:24;;;;;;;10.35;3.03;;;;;;;;;;5055673;28;20380;-69
2023/12/15 01:47:50;;;;;;;7.15;3.00;;;;;;;;;;5083929;28;20062;-69
2023/12/15 01:50:16;;;;;;;16.80;3.25;;;;;;;;;;5061454;28;20037;-69
2023/12/15 01:52:42;;;;;;;7.72;2.92;;;;;;;;;;5059795;28;20036;-69
2023/12/15 01:55:09;;;;;;;6.70;3.75;;;;;;;;;;5052031;28;20024;-69
2023/12/15 01:57:35;;;;;;;9.57;2.90;;;;;;;;;;5053497;28;20029;-69
2023/12/15 02:00:06;;;;;;;8.13;3.30;;;;;;;;;;5061361;28;20029;-68
2023/12/15 02:02:33;;;;;;;14.48;3.08;;;;;;;;;;5057203;28;20036;-69
2023/12/15 02:05:00;;;;;;;11.13;2.90;;;;;;;;;;5055308;28;20047;-68
2023/12/15 02:07:26;;;;;;;10.25;2.67;;;;;;;;;;5057430;28;20225;-68
2023/12/15 02:09:52;;;;;;;8.25;3.28;;;;;;;;;;5059921;28;20067;-68
2023/12/15 02:12:18;;;;;;;13.27;2.90;;;;;;;;;;5061050;28;20021;-67
2023/12/15 02:14:44;;;;;;;8.75;3.45;;;;;;;;;;5060214;28;20107;-68
2023/12/15 02:17:11;;;;;;;10.27;3.20;;;;;;;;;;5068536;28;20741;-69
2023/12/15 02:19:37;;;;;;;13.02;3.47;;;;;;;;;;5057808;28;20024;-69
2023/12/15 02:22:03;;;;;;;9.95;3.60;;;;;;;;;;5072708;28;20032;-69
2023/12/15 02:24:30;;;;;;;8.30;2.60;;;;;;;;;;5064428;28;20452;-68
2023/12/15 02:26:56;;;;;;;7.45;3.33;;;;;;;;;;5057894;28;20091;-70
2023/12/15 02:29:22;;;;;;;8.38;3.08;;;;;;;;;;5065548;28;20032;-68
2023/12/15 02:31:49;;;;;;;9.85;3.10;;;;;;;;;;5058662;28;20072;-69
2023/12/15 02:34:15;;;;;;;8.52;3.45;;;;;;;;;;5074452;28;20542;-68
2023/12/15 02:36:41;;;;;;;8.85;2.90;;;;;;;;;;5064185;28;20028;-68
2023/12/15 02:39:07;;;;;;;7.40;2.85;;;;;;;;;;5060939;28;20474;-69
2023/12/15 02:41:33;;;;;;;13.73;2.58;;;;;;;;;;5065128;28;20447;-68
2023/12/15 02:44:00;;;;;;;10.05;3.28;;;;;;;;;;5057301;28;20505;-69
2023/12/15 02:46:26;;;;;;;11.38;3.20;;;;;;;;;;5055036;28;20477;-69
2023/12/15 02:48:52;;;;;;;11.27;3.40;;;;;;;;;;5053954;28;20499;-70
2023/12/15 02:51:26;;;;;;;9.30;2.65;;;;;;;;;;5066012;28;20024;-70
2023/12/15 02:53:52;;;;;;;7.88;3.03;;;;;;;;;;5067659;28;20037;-69
2023/12/15 02:56:18;;;;;;;6.97;2.65;;;;;;;;;;5059512;28;20419;-69
2023/12/15 02:58:44;;;;;;;5.55;2.20;;;;;;;;;;5066962;28;20016;-69
2023/12/15 03:01:10;;;;;;;9.23;2.75;;;;;;;;;;5061059;28;20035;-69
2023/12/15 03:03:37;;;;;;;7.18;2.60;;;;;;;;;;5059869;28;20024;-69
2023/12/15 03:06:03;;;;;;;8.93;3.45;;;;;;;;;;5051826;28;20086;-68
2023/12/15 03:08:29;;;;;;;7.78;2.78;;;;;;;;;;5058494;28;20029;-70
2023/12/15 03:10:57;;;;;;;6.68;2.70;;;;;;;;;;5061554;28;20025;-68
2023/12/15 03:13:28;;;;;;;6.22;3.00;;;;;;;;;;5057432;28;20373;-68
2023/12/15 03:15:54;;;;;;;6.00;3.58;;;;;;;;;;5059439;28;20039;-69
2023/12/15 03:18:20;;;;;;;11.73;3.55;;;;;;;;;;5055480;28;20451;-69
2023/12/15 03:20:46;;;;;;;4.63;2.53;;;;;;;;;;5059437;28;20047;-68
2023/12/15 03:23:12;;;;;;;7.78;2.90;;;;;;;;;;5061294;28;20037;-68
2023/12/15 03:25:39;;;;;;;12.63;3.05;;;;;;;;;;5057214;28;20033;-68
2023/12/15 03:28:05;;;;;;;6.88;2.42;;;;;;;;;;5062996;28;20028;-69
2023/12/15 03:30:31;;;;;;;4.68;2.60;;;;;;;;;;5065124;28;20025;-68
2023/12/15 03:32:57;;;;;;;5.30;2.97;;;;;;;;;;5059499;28;20107;-70
2023/12/15 03:35:23;;;;;;;5.05;3.00;;;;;;;;;;5054058;28;20037;-70
2023/12/15 03:37:49;;;;;;;8.05;2.50;;;;;;;;;;5059285;28;20461;-69
2023/12/15 03:40:16;;;;;;;5.82;2.40;;;;;;;;;;5061611;28;20031;-69
2023/12/15 03:42:42;;;;;;;8.05;2.72;;;;;;;;;;5064581;28;20290;-68
2023/12/15 03:45:08;;;;;;;5.78;2.15;;;;;;;;;;5054451;28;20068;-69
2023/12/15 03:47:34;;;;;;;9.05;2.58;;;;;;;;;;5065394;28;20597;-68
2023/12/15 03:50:01;;;;;;;10.45;2.80;;;;;;;;;;5071971;28;20504;-68
2023/12/15 03:52:27;;;;;;;15.43;2.35;;;;;;;;;;5059056;28;20025;-69
2023/12/15 03:54:53;;;;;;;6.18;2.63;;;;;;;;;;5064079;28;20033;-66
2023/12/15 03:57:19;;;;;;;9.30;2.70;;;;;;;;;;5057920;28;20099;-65
2023/12/15 03:59:45;;;;;;;6.57;2.22;;;;;;;;;;5057614;28;20063;-65
2023/12/15 04:02:14;;;;;;;9.55;2.65;;;;;;;;;;5075678;28;20232;-70
2023/12/15 04:04:41;;;;;;;6.60;2.38;;;;;;;;;;5060506;28;20451;-68
2023/12/15 04:07:07;;;;;;;8.52;2.35;;;;;;;;;;5051495;28;20380;-68
2023/12/15 04:09:33;;;;;;;4.22;2.30;;;;;;;;;;5056854;28;20012;-69
2023/12/15 04:11:59;;;;;;;5.82;2.35;;;;;;;;;;5058761;28;20059;-69
2023/12/15 04:14:25;;;;;;;7.43;2.47;;;;;;;;;;5058664;28;20388;-68
2023/12/15 04:16:52;;;;;;;3.22;2.00;;;;;;;;;;5060415;28;20537;-69
2023/12/15 04:19:18;;;;;;;7.80;2.60;;;;;;;;;;5056868;28;20032;-67
2023/12/15 04:21:44;;;;;;;6.63;2.47;;;;;;;;;;5054360;28;20357;-69
2023/12/15 04:24:10;;;;;;;3.90;1.88;;;;;;;;;;5055382;28;20028;-68
2023/12/15 04:26:37;;;;;;;4.63;2.30;;;;;;;;;;5058967;28;20054;-68
2023/12/15 04:29:08;;;;;;;8.50;2.35;;;;;;;;;;5061650;28;20029;-68
2023/12/15 04:31:34;;;;;;;4.18;1.95;;;;;;;;;;5066960;28;20119;-68
2023/12/15 04:34:00;;;;;;;4.32;2.30;;;;;;;;;;5061823;28;20032;-69
2023/12/15 04:36:27;;;;;;;2.25;1.90;;;;;;;;;;5058267;28;22302;-69
2023/12/15 04:38:53;;;;;;;6.65;2.30;;;;;;;;;;5059645;28;20132;-68
2023/12/15 04:41:20;;;;;;;3.50;2.63;;;;;;;;;;5056310;28;20047;-68
2023/12/15 04:43:47;;;;;;;6.15;1.98;;;;;;;;;;5057451;28;20023;-68
2023/12/15 04:46:21;;;;;;;4.75;1.83;;;;;;;;;;5062098;28;20091;-69
2023/12/15 04:48:48;;;;;;;5.05;2.70;;;;;;;;;;5063715;28;20450;-66
2023/12/15 04:51:14;;;;;;;7.65;2.20;;;;;;;;;;5073334;28;20064;-68
2023/12/15 04:53:40;;;;;;;6.03;2.83;;;;;;;;;;5072782;28;20461;-68
2023/12/15 04:56:06;;;;;;;6.40;2.35;;;;;;;;;;5056491;28;20039;-69
2023/12/15 04:58:32;;;;;;;7.18;2.30;;;;;;;;;;5059877;28;20396;-68
2023/12/15 05:00:58;;;;;;;3.10;1.70;;;;;;;;;;5062053;28;20031;-69
2023/12/15 05:03:25;;;;;;;6.70;2.10;;;;;;;;;;5058546;28;20047;-67
2023/12/15 05:05:51;;;;;;;3.72;2.03;;;;;;;;;;5058199;28;20112;-65
2023/12/15 05:08:17;;;;;;;2.35;1.70;;;;;;;;;;5055159;28;20547;-68
2023/12/15 05:10:43;;;;;;;4.70;2.00;;;;;;;;;;5060103;28;20550;-68
2023/12/15 05:13:09;;;;;;;4.20;2.33;;;;;;;;;;5052322;28;20709;-67
2023/12/15 05:15:37;;;;;;;6.60;2.15;;;;;;;;;;5056822;28;20340;-68
2023/12/15 05:18:03;;;;;;;6.05;2.13;;;;;;;;;;5060568;28;20017;-68
2023/12/15 05:20:29;;;;;;;5.63;2.30;;;;;;;;;;5055400;28;20436;-68
2023/12/15 05:22:55;;;;;;;7.05;3.55;;;;;;;;;;5055322;28;20028;-68
2023/12/15 05:25:21;;;;;;;9.63;2.10;;;;;;;;;;5049782;28;20110;-68
2023/12/15 05:27:47;;;;;;;6.22;2.28;;;;;;;;;;5055658;28;20041;-68
2023/12/15 05:30:14;;;;;;;4.97;2.10;;;;;;;;;;5051945;28;20545;-68
2023/12/15 05:32:40;;;;;;;2.83;1.77;;;;;;;;;;5058237;28;20028;-68
2023/12/15 05:35:06;;;;;;;4.57;2.05;;;;;;;;;;5060668;28;20036;-68
2023/12/15 05:37:32;;;;;;;4.95;1.85;;;;;;;;;;5052237;28;20041;-68
2023/12/15 05:39:59;;;;;;;5.68;2.55;;;;;;;;;;5051388;28;20032;-68
2023/12/15 05:42:26;;;;;;;5.88;2.50;;;;;;;;;;5059363;28;20078;-68
2023/12/15 05:47:36;;;;;;;;;;;;;;;;;;5015623;27;20978;-69
2023/12/15 05:50:03;;;;;;;6.78;2.00;;;;;;;;;;5020926;28;20410;-69
2023/12/15 05:52:29;;;;;;;9.38;2.35;;;;;;;;;;5019683;28;20030;-69
2023/12/15 05:54:55;;;;;;;6.75;2.75;;;;;;;;;;5034940;28;20037;-69
2023/12/15 05:57:21;;;;;;;7.07;2.45;;;;;;;;;;5015281;28;20034;-70
2023/12/15 05:59:48;;;;;;;3.58;2.03;;;;;;;;;;5009163;28;20050;-69
2023/12/15 06:02:14;;;;;;;3.70;2.03;;;;;;;;;;5031309;28;20026;-69
2023/12/15 06:04:40;;;;;;;8.63;2.45;;;;;;;;;;5027053;28;20083;-69
2023/12/15 06:07:06;;;;;;;3.35;2.20;;;;;;;;;;5004661;28;20493;-70
2023/12/15 06:09:35;;;;;;;6.57;2.53;;;;;;;;;;5031232;28;20018;-68
2023/12/15 06:12:02;;;;;;;7.50;2.38;;;;;;;;;;5024923;28;20038;-68
2023/12/15 06:14:28;;;;;;;6.68;2.55;;;;;;;;;;5004662;28;20406;-68
2023/12/15 06:16:54;;;;;;;4.50;2.97;;;;;;;;;;5025285;28;20029;-68
2023/12/15 06:19:21;;;;;;;9.55;2.50;;;;;;;;;;5071875;28;20026;-68
2023/12/15 06:21:47;;;;;;;9.00;3.30;;;;;;;;;;5006202;28;20087;-68
2023/12/15 06:24:13;;;;;;;8.48;2.65;;;;;;;;;;5026631;28;20034;-69
2023/12/15 06:26:39;;;;;;;9.18;3.65;;;;;;;;;;5033729;28;20548;-68
2023/12/15 06:29:05;;;;;;;4.43;1.90;;;;;;;;;;5015725;28;20045;-68
2023/12/15 06:31:32;;;;;;;6.38;2.40;;;;;;;;;;5048396;28;20030;-69
2023/12/15 06:33:58;;;;;;;6.78;2.35;;;;;;;;;;5014916;28;20721;-68
2023/12/15 06:36:26;;;;;;;7.28;3.80;;;;;;;;;;5001898;28;20041;-68
2023/12/15 06:38:52;;;;;;;8.85;2.38;;;;;;;;;;5038881;28;20055;-68
2023/12/15 06:41:18;;;;;;;6.68;2.47;;;;;;;;;;5018485;28;20466;-68
2023/12/15 06:43:45;;;;;;;5.50;2.05;;;;;;;;;;5050487;28;20062;-67
2023/12/15 06:46:15;;;;;;;8.57;2.25;;;;;;;;;;5051135;27;20049;-68
2023/12/15 06:48:41;;;;;;;10.48;2.30;;;;;;;;;;5058094;27;20016;-68
2023/12/15 06:51:07;;;;;;;4.47;1.85;;;;;;;;;;5011861;28;20560;-68
2023/12/15 06:53:34;;;;;;;9.68;2.15;;;;;;;;;;5004776;28;20591;-67
2023/12/15 06:56:01;;;;;;;11.90;2.63;;;;;;;;;;5009363;28;20026;-68
2023/12/15 06:58:27;;;;;;;7.13;2.42;;;;;;;;;;5011457;28;20113;-66
2023/12/15 07:00:54;;;;;;;6.13;2.58;;;;;;;;;;5002911;28;20034;-67
2023/12/15 07:03:20;;;;;;;6.45;2.13;;;;;;;;;;4998259;28;20034;-66
2023/12/15 07:05:46;;;;;;;7.47;2.40;;;;;;;;;;4988522;28;20034;-66
2023/12/15 07:08:12;;;;;;;7.95;2.22;;;;;;;;;;4991746;28;20228;-66
2023/12/15 07:10:38;;;;;;;5.82;2.20;;;;;;;;;;4997379;28;20793;-66
2023/12/15 07:13:05;;;;;;;6.25;2.10;;;;;;;;;;4998051;28;20026;-69
2023/12/15 07:15:33;;;;;;;8.25;2.60;;;;;;;;;;4998175;28;20577;-66
2023/12/15 07:18:00;;;;;;;3.83;2.38;;;;;;;;;;4990324;28;20041;-66
2023/12/15 07:20:26;;;;;;;5.18;2.15;;;;;;;;;;4993234;28;20037;-66
2023/12/15 07:22:52;;;;;;;3.15;2.85;;;;;;;;;;4985383;28;20466;-66
2023/12/15 07:25:18;;;;;;;5.80;2.17;;;;;;;;;;4996563;28;20107;-67
2023/12/15 07:27:45;;;;;;;7.55;2.28;;;;;;;;;;4997092;28;20089;-67
2023/12/15 07:30:12;;;;;;;8.25;1.92;;;;;;;;;;4996894;28;20018;-65
2023/12/15 07:32:38;;;;;;;7.63;2.20;;;;;;;;;;5006445;28;20034;-66
2023/12/15 07:35:05;;;;;;;11.05;2.75;;;;;;;;;;4998602;28;20476;-66
2023/12/15 07:37:32;;;;;;;9.27;2.50;;;;;;;;;;5001699;28;20018;-66
2023/12/15 07:39:58;;;;;;;4.57;2.40;;;;;;;;;;4995321;28;20018;-67
2023/12/15 07:42:26;;;;;;;7.28;2.40;;;;;;;;;;5002309;28;20025;-66
2023/12/15 07:44:52;;;;;;;8.68;2.00;;;;;;;;;;5000191;28;20057;-66
2023/12/15 07:47:18;;;;;;;8.02;2.83;;;;;;;;;;4992907;28;20042;-67
2023/12/15 07:49:45;;;;;;;6.50;2.72;;;;;;;;;;4999523;28;20547;-66
2023/12/15 07:52:11;;;;;;;11.23;3.20;;;;;;;;;;4998938;28;20057;-66
2023/12/15 07:54:37;;;;;;;5.72;2.08;;;;;;;;;;4997426;28;20079;-66
2023/12/15 07:57:03;;;;;;;9.80;2.30;;;;;;;;;;4998312;28;20026;-66
2023/12/15 07:59:30;;;;;;;7.93;2.42;;;;;;;;;;4996011;28;20402;-66
2023/12/15 08:01:56;;;;;;;11.23;2.83;;;;;;;;;;4989729;28;20124;-66
2023/12/15 08:04:23;;;;;;;5.00;2.50;;;;;;;;;;4992443;28;20145;-67
2023/12/15 08:06:49;;;;;;;7.78;2.47;;;;;;;;;;4990297;28;20398;-67
2023/12/15 08:09:15;;;;;;;9.02;2.92;;;;;;;;;;4997785;28;20114;-66
2023/12/15 08:11:41;;;;;;;6.82;2.45;;;;;;;;;;4997552;28;20485;-67
2023/12/15 08:14:07;;;;;;;7.10;2.63;;;;;;;;;;4995991;28;20026;-67
2023/12/15 08:16:34;;;;;;;5.82;2.97;;;;;;;;;;4994637;28;20038;-66
2023/12/15 08:19:05;;;;;;;3.95;2.40;;;;;;;;;;4998720;28;20492;-65
2023/12/15 08:21:31;;;;;;;7.50;2.28;;;;;;;;;;4992181;28;20027;-66
2023/12/15 08:23:58;;;;;;;15.80;3.15;;;;;;;;;;4995483;28;20030;-66
2023/12/15 08:26:27;;;;;;;9.18;2.88;;;;;;;;;;4987892;28;20048;-67
2023/12/15 08:28:53;;;;;;;10.43;3.20;;;;;;;;;;4996972;28;20513;-66
2023/12/15 08:31:20;;;;;;;12.55;2.50;;;;;;;;;;4995006;28;20125;-68
2023/12/15 08:33:46;;;;;;;7.55;2.45;;;;;;;;;;4991923;28;20540;-66
2023/12/15 08:36:13;;;;;;;6.75;2.88;;;;;;;;;;4989426;28;20059;-67
2023/12/15 08:38:39;;;;;;;13.77;2.97;;;;;;;;;;4993484;28;20390;-66
2023/12/15 08:41:06;;;;;;;4.95;2.05;;;;;;;;;;4992872;28;20048;-66
2023/12/15 08:43:32;;;;;;;9.98;2.92;;;;;;;;;;4990661;28;20509;-67
2023/12/15 08:45:59;;;;;;;10.10;2.88;;;;;;;;;;4989389;28;20129;-66
2023/12/15 08:48:25;;;;;;;10.43;3.25;;;;;;;;;;4988434;28;20027;-67
2023/12/15 08:50:51;;;;;;;10.98;3.35;;;;;;;;;;5001555;28;20022;-67
2023/12/15 08:53:18;;;;;;;6.68;2.58;;;;;;;;;;4993128;28;20349;-67
2023/12/15 08:55:44;;;;;;;12.13;2.33;;;;;;;;;;5003710;28;20075;-67
2023/12/15 08:58:10;;;;;;;7.05;2.65;;;;;;;;;;4991467;28;20057;-67
2023/12/15 09:00:37;;;;;;;8.48;2.80;;;;;;;;;;4993005;28;20484;-67
2023/12/15 09:03:04;;;;;;;11.43;2.63;;;;;;;;;;4986771;28;20036;-67
2023/12/15 09:05:31;;;;;;;8.23;2.80;;;;;;;;;;4995192;28;20041;-67
2023/12/15 09:07:58;;;;;;;7.63;3.05;;;;;;;;;;4992076;28;20059;-67
2023/12/15 09:10:25;;;;;;;13.25;3.17;;;;;;;;;;4978735;28;20034;-67
2023/12/15 09:12:52;;;;;;;8.55;2.85;;;;;;;;;;5007298;28;20083;-67
2023/12/15 09:15:19;;;;;;;8.05;2.30;;;;;;;;;;5001687;28;21755;-67
2023/12/15 09:17:45;;;;;;;6.82;2.95;;;;;;;;;;5000299;28;20021;-67
2023/12/15 09:20:12;;;;;;;10.70;3.85;;;;;;;;;;4987711;28;20037;-67
2023/12/15 09:22:40;;;;;;;5.97;2.50;;;;;;;;;;4994767;28;20090;-67
2023/12/15 09:25:07;;;;;;;13.95;3.10;;;;;;;;;;4990838;28;20049;-67
2023/12/15 09:27:33;;;;;;;9.00;3.03;;;;;;;;;;4990610;28;20115;-66
2023/12/15 09:29:59;;;;;;;5.78;2.22;;;;;;;;;;4986711;28;20033;-66
2023/12/15 09:32:25;;;;;;;6.20;2.72;;;;;;;;;;4989708;28;20188;-66
2023/12/15 09:34:52;;;;;;;8.10;2.15;;;;;;;;;;4988494;28;20027;-67
2023/12/15 09:37:18;;;;;;;7.13;2.53;;;;;;;;;;4988972;28;20048;-66
2023/12/15 09:39:44;;;;;;;9.57;3.50;;;;;;;;;;4991032;28;20482;-66
2023/12/15 09:42:11;;;;;;;10.07;2.63;;;;;;;;;;4993079;28;20069;-66
2023/12/15 09:44:37;;;;;;;10.82;2.90;;;;;;;;;;4993489;28;20401;-66
2023/12/15 09:47:03;;;;;;;12.43;3.65;;;;;;;;;;4997234;28;20046;-66
2023/12/15 09:49:32;;;;;;;2.67;2.08;;;;;;;;;;4991842;28;20641;-65
2023/12/15 09:52:01;;;;;;;7.07;2.35;;;;;;;;;;4988366;28;20018;-66
2023/12/15 09:54:28;;;;;;;5.78;2.40;;;;;;;;;;4983929;28;20100;-66
2023/12/15 09:56:55;;;;;;;8.05;2.58;;;;;;;;;;4996778;28;20079;-66
2023/12/15 09:59:21;;;;;;;6.63;2.47;;;;;;;;;;4990070;28;20058;-66
2023/12/15 10:01:48;;;;;;;8.07;2.50;;;;;;;;;;4987411;28;20026;-65
2023/12/15 10:04:14;;;;;;;12.35;2.97;;;;;;;;;;4984993;28;20045;-66
2023/12/15 10:06:42;;;;;;;8.32;2.97;;;;;;;;;;4990080;28;20026;-67
2023/12/15 10:09:18;;;;;;;11.13;2.97;;;;;;;;;;5004621;28;20086;-67
2023/12/15 10:11:46;;;;;;;7.53;2.65;;;;;;;;;;4996850;28;20195;-66
2023/12/15 10:14:14;;;;;;;11.80;3.28;;;;;;;;;;5007940;28;20109;-66
2023/12/15 10:16:40;;;;;;;6.97;3.13;;;;;;;;;;4986282;28;20026;-65
2023/12/15 10:19:08;;;;;;;14.02;2.88;;;;;;;;;;4990201;28;20035;-66
2023/12/15 10:21:34;;;;;;;12.45;3.60;;;;;;;;;;4999659;28;20092;-66
2023/12/15 10:24:20;;;;;;;5.45;2.33;;;;;;;;;;4994880;28;20053;-66
2023/12/15 10:26:47;;;;;;;11.18;3.92;;;;;;;;;;4993602;28;20030;-67
2023/12/15 10:29:13;;;;;;;6.40;2.47;;;;;;;;;;4992865;28;20541;-66
2023/12/15 10:31:39;;;;;;;5.40;2.80;;;;;;;;;;4999515;28;20105;-66
2023/12/15 10:34:06;;;;;;;7.13;2.65;;;;;;;;;;4993637;28;20075;-66
2023/12/15 10:36:33;;;;;;;6.68;2.40;;;;;;;;;;5021568;27;20061;-66
2023/12/15 10:39:03;;;;;;;9.65;2.63;;;;;;;;;;4991967;28;20029;-66
2023/12/15 10:41:32;;;;;;;7.38;2.33;;;;;;;;;;4995508;28;20325;-66
2023/12/15 10:44:02;;;;;;;8.48;2.47;;;;;;;;;;4998464;28;20027;-67
2023/12/15 10:46:28;;;;;;;5.85;2.67;;;;;;;;;;4991952;28;20053;-67
2023/12/15 10:48:55;;;;;;;10.23;2.72;;;;;;;;;;4996986;28;20460;-67
2023/12/15 10:51:24;;;;;;;7.75;2.10;;;;;;;;;;4993498;28;20072;-66
2023/12/15 10:53:53;;;;;;;6.70;1.95;;;;;;;;;;4993187;28;20030;-66
2023/12/15 10:56:21;;;;;;;12.90;3.30;;;;;;;;;;4998567;28;20322;-66
2023/12/15 10:58:47;;;;;;;9.05;2.33;;;;;;;;;;4997258;28;20032;-67
2023/12/15 11:01:16;;;;;;;3.10;2.22;;;;;;;;;;4995869;28;20042;-66
2023/12/15 11:03:43;;;;;;;7.97;2.55;;;;;;;;;;4994349;28;20068;-67
2023/12/15 11:06:10;;;;;;;8.95;2.30;;;;;;;;;;4989524;28;20545;-67
2023/12/15 11:08:36;;;;;;;3.40;2.28;;;;;;;;;;4998818;28;20089;-67
2023/12/15 11:11:07;;;;;;;9.32;2.47;;;;;;;;;;4990582;28;20304;-67
2023/12/15 11:13:52;;;;;;;7.03;2.40;;;;;;;;;;5004164;28;20518;-66
2023/12/15 11:16:19;;;;;;;2.58;1.90;;;;;;;;;;4997745;28;20462;-66
2023/12/15 11:18:45;;;;;;;5.45;2.30;;;;;;;;;;4998406;28;20044;-66
2023/12/15 11:21:11;;;;;;;4.10;2.25;;;;;;;;;;4986746;28;20529;-67
2023/12/15 11:24:04;;;;;;;6.75;2.92;;;;;;;;;;4996575;28;20026;-66
2023/12/15 11:26:32;;;;;;;7.78;2.42;;;;;;;;;;4996441;28;20482;-67
2023/12/15 11:29:06;;;;;;;8.75;2.25;;;;;;;;;;5000290;28;20131;-66
2023/12/15 11:31:33;;;;;;;8.90;2.35;;;;;;;;;;4998101;28;20496;-66
2023/12/15 11:34:01;;;;;;;3.80;3.28;;;;;;;;;;4990615;28;20381;-65
2023/12/15 11:36:28;;;;;;;6.05;2.35;;;;;;;;;;4992107;28;20186;-67
2023/12/15 11:38:55;;;;;;;7.13;2.78;;;;;;;;;;4997362;28;20167;-66
2023/12/15 11:41:22;;;;;;;6.05;2.20;;;;;;;;;;4996365;28;20018;-66
2023/12/15 11:43:52;;;;;;;4.95;2.15;;;;;;;;;;4992402;28;20030;-67
2023/12/15 11:46:20;;;;;;;4.60;2.35;;;;;;;;;;4991033;28;20590;-68
2023/12/15 11:48:46;;;;;;;5.30;2.22;;;;;;;;;;4994585;28;20022;-67
2023/12/15 11:51:12;;;;;;;5.13;2.38;;;;;;;;;;4996047;28;20045;-66
2023/12/15 11:53:47;;;;;;;4.85;2.00;;;;;;;;;;5007682;28;20026;-67
2023/12/15 11:56:13;;;;;;;9.88;2.28;;;;;;;;;;4987990;28;20089;-67
2023/12/15 11:58:39;;;;;;;4.88;1.80;;;;;;;;;;4993291;28;20434;-67
2023/12/15 12:01:06;;;;;;;7.05;2.53;;;;;;;;;;4991865;28;20046;-66
2023/12/15 12:03:32;;;;;;;5.78;2.33;;;;;;;;;;4990133;28;20037;-66
2023/12/15 12:05:59;;;;;;;3.75;2.08;;;;;;;;;;4989322;28;20492;-66
2023/12/15 12:08:25;;;;;;;9.90;2.67;;;;;;;;;;4992489;28;20035;-66
2023/12/15 12:10:54;;;;;;;5.13;1.90;;;;;;;;;;4991893;28;20486;-66
2023/12/15 12:13:21;;;;;;;7.28;2.45;;;;;;;;;;5003507;28;20391;-67
2023/12/15 12:15:52;;;;;;;6.50;2.53;;;;;;;;;;4986885;28;20087;-66
2023/12/15 12:18:19;;;;;;;5.90;2.28;;;;;;;;;;4997116;28;20028;-67
2023/12/15 12:20:46;;;;;;;4.10;2.13;;;;;;;;;;4992262;28;20038;-66
2023/12/15 12:23:12;;;;;;;5.60;2.10;;;;;;;;;;4997677;28;20069;-67
2023/12/15 12:25:42;;;;;;;6.43;2.03;;;;;;;;;;4992808;28;20345;-69
2023/12/15 12:28:08;;;;;;;12.35;2.42;;;;;;;;;;4987673;28;20119;-66
2023/12/15 12:30:35;;;;;;;5.22;2.38;;;;;;;;;;4982478;28;20112;-67
2023/12/15 12:33:01;;;;;;;4.05;2.28;;;;;;;;;;4991068;28;20033;-67
2023/12/15 12:35:27;;;;;;;2.40;2.10;;;;;;;;;;4997029;28;20034;-65
2023/12/15 12:37:53;;;;;;;10.50;2.85;;;;;;;;;;4992697;28;20197;-66
2023/12/15 12:40:22;;;;;;;4.75;2.15;;;;;;;;;;5000272;28;20052;-66
2023/12/15 12:42:48;;;;;;;4.47;2.38;;;;;;;;;;4992673;28;20230;-66
2023/12/15 12:45:14;;;;;;;3.80;2.50;;;;;;;;;;4993737;28;20041;-66
2023/12/15 12:47:41;;;;;;;10.95;2.72;;;;;;;;;;4993660;28;20385;-66
2023/12/15 12:50:11;;;;;;;10.43;2.47;;;;;;;;;;4996416;28;20452;-65
2023/12/15 12:52:37;;;;;;;3.65;2.00;;;;;;;;;;4994189;28;20037;-66
2023/12/15 12:55:06;;;;;;;15.27;2.92;;;;;;;;;;4987119;28;20544;-65
2023/12/15 12:57:32;;;;;;;6.13;2.63;;;;;;;;;;4994492;28;20413;-65
2023/12/15 12:59:59;;;;;;;7.72;2.92;;;;;;;;;;4992671;28;20489;-66
2023/12/15 13:02:25;;;;;;;6.13;1.73;;;;;;;;;;4987402;28;20034;-66
2023/12/15 13:04:52;;;;;;;4.32;1.85;;;;;;;;;;4990772;28;20093;-65
2023/12/15 13:07:19;;;;;;;4.78;2.35;;;;;;;;;;4990427;28;20030;-66
2023/12/15 13:09:45;;;;;;;11.23;2.35;;;;;;;;;;4990544;28;20026;-66
2023/12/15 13:12:17;;;;;;;6.47;3.20;;;;;;;;;;4990479;28;20064;-66
2023/12/15 13:14:43;;;;;;;4.78;2.45;;;;;;;;;;4992773;28;20565;-66
2023/12/15 13:17:10;;;;;;;7.68;5.00;;;;;;;;;;4996816;28;20075;-66
2023/12/15 13:19:36;;;;;;;4.50;2.22;;;;;;;;;;5000392;28;20034;-66
2023/12/15 13:22:03;;;;;;;6.70;2.28;;;;;;;;;;4986419;28;20039;-65
2023/12/15 13:24:29;;;;;;;4.53;3.13;;;;;;;;;;4990349;28;20381;-66
2023/12/15 13:27:04;;;;;;;7.15;2.25;;;;;;;;;;4996977;28;20027;-66
2023/12/15 13:29:33;;;;;;;6.05;1.80;;;;;;;;;;4995948;28;20026;-66
2023/12/15 13:31:59;;;;;;;7.90;2.67;;;;;;;;;;4990551;28;20508;-65
2023/12/15 13:34:25;;;;;;;5.00;2.20;;;;;;;;;;5022639;27;20035;-65
2023/12/15 13:36:51;;;;;;;10.60;2.80;;;;;;;;;;4984865;28;20030;-66
2023/12/15 13:39:18;;;;;;;4.97;2.17;;;;;;;;;;4990509;28;20057;-66
2023/12/15 13:41:48;;;;;;;5.25;2.10;;;;;;;;;;4984381;28;20822;-66
2023/12/15 13:44:14;;;;;;;4.93;2.58;;;;;;;;;;4991029;28;20039;-66
2023/12/15 13:46:41;;;;;;;3.13;2.25;;;;;;;;;;4989208;28;20576;-69
2023/12/15 13:49:07;;;;;;;5.15;2.25;;;;;;;;;;4998229;28;20034;-66
2023/12/15 13:51:33;;;;;;;5.10;2.08;;;;;;;;;;5000218;28;20030;-66
2023/12/15 13:53:59;;;;;;;3.17;1.92;;;;;;;;;;4982741;28;20113;-67
2023/12/15 13:56:27;;;;;;;9.60;2.35;;;;;;;;;;5001060;28;20037;-65
2023/12/15 13:58:53;;;;;;;6.80;2.28;;;;;;;;;;5000121;28;20054;-65
2023/12/15 14:01:20;;;;;;;4.35;2.00;;;;;;;;;;4998448;28;20055;-64
2023/12/15 14:03:46;;;;;;;12.68;3.28;;;;;;;;;;4989407;28;20863;-65
2023/12/15 14:06:12;;;;;;;4.75;1.90;;;;;;;;;;5003496;28;20046;-65
2023/12/15 14:08:39;;;;;;;4.90;3.03;;;;;;;;;;5014892;28;20034;-65
2023/12/15 14:11:05;;;;;;;4.75;2.28;;;;;;;;;;5011765;28;20034;-68
2023/12/15 14:13:32;;;;;;;2.45;1.95;;;;;;;;;;5002435;28;20026;-66
2023/12/15 14:15:58;;;;;;;2.42;1.80;;;;;;;;;;5004572;28;20486;-67
2023/12/15 14:18:28;;;;;;;5.53;1.80;;;;;;;;;;5011604;28;20611;-67
2023/12/15 14:20:54;;;;;;;4.13;2.20;;;;;;;;;;5015944;28;20041;-69
2023/12/15 14:23:20;;;;;;;3.30;2.15;;;;;;;;;;5002505;28;20042;-68
2023/12/15 14:25:46;;;;;;;3.30;2.25;;;;;;;;;;5016574;28;20419;-68
2023/12/15 14:28:13;;;;;;;3.92;1.80;;;;;;;;;;4998314;28;20528;-69
2023/12/15 14:30:40;;;;;;;4.60;2.20;;;;;;;;;;4995464;28;20034;-68
2023/12/15 14:33:07;;;;;;;5.22;2.10;;;;;;;;;;4995164;28;20045;-68
2023/12/15 14:35:33;;;;;;;6.03;2.20;;;;;;;;;;4996057;28;20493;-67
2023/12/15 14:38:00;;;;;;;4.68;2.03;;;;;;;;;;5000642;28;20067;-68
2023/12/15 14:40:26;;;;;;;3.97;2.13;;;;;;;;;;4999785;28;20065;-65